createdAt,value
2022-08-22T00:02:55.670Z,4.43
2022-08-22T00:03:10.288Z,3.65
2022-08-22T00:04:13.040Z,3.92
2022-08-22T00:06:47.359Z,4.60
2022-08-22T00:09:24.687Z,4.13
2022-08-22T00:11:57.989Z,4.00
2022-08-22T00:14:36.666Z,3.88
2022-08-22T00:17:09.147Z,4.50
2022-08-22T00:19:47.527Z,4.57
2022-08-22T00:22:23.076Z,4.53
2022-08-22T00:24:59.564Z,4.50
2022-08-22T00:27:35.381Z,5.13
2022-08-22T00:30:12.707Z,5.40
2022-08-22T00:32:45.901Z,5.25
2022-08-22T00:35:27.100Z,5.35
2022-08-22T00:38:05.355Z,4.72
2022-08-22T00:40:45.447Z,5.15
2022-08-22T00:43:33.155Z,4.97
2022-08-22T00:46:16.238Z,5.22
2022-08-22T00:49:10.686Z,4.95
2022-08-22T00:51:58.565Z,5.28
2022-08-22T00:54:32.354Z,4.68
2022-08-22T00:57:27.658Z,5.28
2022-08-22T01:00:08.985Z,5.50
2022-08-22T01:02:52.272Z,5.15
2022-08-22T01:05:41.756Z,4.97
2022-08-22T01:08:19.505Z,4.95
2022-08-22T01:11:03.778Z,5.43
2022-08-22T01:13:51.698Z,5.13
2022-08-22T01:16:37.556Z,4.78
2022-08-22T01:19:31.921Z,5.45
2022-08-22T01:22:37.994Z,5.35
2022-08-22T01:25:53.398Z,5.07
2022-08-22T01:28:54.467Z,4.88
2022-08-22T01:31:43.229Z,4.57
2022-08-22T01:34:29.550Z,5.03
2022-08-22T01:37:25.475Z,5.72
2022-08-22T01:40:27.337Z,5.57
2022-08-22T01:43:10.254Z,5.32
2022-08-22T01:46:01.614Z,5.10
2022-08-22T01:48:37.563Z,5.72
2022-08-22T01:51:22.801Z,5.57
2022-08-22T01:53:57.666Z,5.47
2022-08-22T01:56:34.019Z,4.90
2022-08-22T01:59:10.993Z,5.22
2022-08-22T02:01:57.309Z,4.93
2022-08-22T02:04:36.853Z,6.30
2022-08-22T02:07:13.310Z,6.15
2022-08-22T02:09:48.180Z,5.57
2022-08-22T02:12:26.221Z,5.80
2022-08-22T02:15:02.635Z,5.38
2022-08-22T02:17:35.758Z,5.53
2022-08-22T02:20:10.546Z,5.20
2022-08-22T02:22:56.275Z,5.63
2022-08-22T02:25:32.753Z,5.93
2022-08-22T02:28:11.606Z,5.55
2022-08-22T02:30:50.471Z,6.18
2022-08-22T02:33:29.154Z,6.50
2022-08-22T02:36:05.233Z,5.68
2022-08-22T02:38:43.687Z,5.00
2022-08-22T02:41:23.705Z,6.40
2022-08-22T02:43:58.036Z,6.32
2022-08-22T02:46:34.916Z,5.47
2022-08-22T02:49:12.014Z,5.35
2022-08-22T02:51:51.847Z,6.40
2022-08-22T02:54:29.375Z,5.65
2022-08-22T02:57:05.100Z,5.97
2022-08-22T02:59:43.180Z,5.63
2022-08-22T03:02:30.500Z,6.32
2022-08-22T03:05:03.311Z,5.90
2022-08-22T03:07:42.079Z,6.43
2022-08-22T03:10:23.105Z,6.45
2022-08-22T03:13:03.216Z,5.55
2022-08-22T03:15:39.499Z,7.00
2022-08-22T03:18:27.557Z,6.35
2022-08-22T03:21:02.723Z,6.53
2022-08-22T03:23:45.263Z,6.22
2022-08-22T03:26:25.358Z,6.13
2022-08-22T03:29:00.385Z,5.88
2022-08-22T03:31:32.799Z,5.00
2022-08-22T03:34:20.390Z,5.72
2022-08-22T03:36:59.699Z,6.38
2022-08-22T03:39:52.779Z,4.90
2022-08-22T03:42:53.790Z,5.30
2022-08-22T03:46:01.351Z,5.63
2022-08-22T03:49:00.009Z,6.25
2022-08-22T03:51:43.465Z,4.85
2022-08-22T03:54:46.507Z,6.10
2022-08-22T03:57:47.812Z,6.22
2022-08-22T04:00:40.727Z,6.55
2022-08-22T04:03:49.907Z,6.43
2022-08-22T04:06:48.305Z,6.13
2022-08-22T04:09:54.550Z,5.45
2022-08-22T04:12:48.506Z,5.85
2022-08-22T04:15:42.224Z,5.60
2022-08-22T04:18:43.504Z,5.50
2022-08-22T04:21:41.958Z,4.78
2022-08-22T04:24:44.331Z,5.38
2022-08-22T04:27:24.905Z,5.18
2022-08-22T04:30:00.086Z,5.35
2022-08-22T04:32:36.747Z,5.10
2022-08-22T04:35:13.998Z,5.68
2022-08-22T04:37:52.276Z,5.30
2022-08-22T04:40:27.050Z,5.90
2022-08-22T04:43:03.822Z,6.57
2022-08-22T04:45:39.576Z,6.13
2022-08-22T04:48:16.035Z,7.03
2022-08-22T04:50:54.765Z,7.20
2022-08-22T04:53:48.931Z,8.50
2022-08-22T04:56:27.911Z,7.65
2022-08-22T04:59:02.987Z,7.47
2022-08-22T05:01:44.701Z,7.07
2022-08-22T05:04:19.673Z,6.38
2022-08-22T05:06:56.866Z,6.65
2022-08-22T05:09:32.417Z,5.72
2022-08-22T05:12:09.189Z,6.40
2022-08-22T05:14:50.396Z,7.68
2022-08-22T05:17:28.565Z,6.93
2022-08-22T05:22:35.267Z,7.13
2022-08-22T05:25:09.595Z,7.78
2022-08-22T05:27:47.101Z,8.32
2022-08-22T05:30:23.938Z,8.52
2022-08-22T05:32:57.621Z,7.95
2022-08-22T05:35:36.414Z,6.40
2022-08-22T05:38:11.531Z,7.70
2022-08-22T05:40:43.047Z,7.00
2022-08-22T05:43:15.130Z,6.25
2022-08-22T05:45:49.093Z,7.20
2022-08-22T05:48:23.423Z,7.57
2022-08-22T05:50:59.460Z,7.03
2022-08-22T05:53:36.438Z,7.25
2022-08-22T05:56:10.676Z,7.60
2022-08-22T05:58:51.186Z,7.45
2022-08-22T06:01:31.400Z,7.03
2022-08-22T06:04:17.283Z,7.35
2022-08-22T06:06:57.795Z,6.72
2022-08-22T06:09:37.438Z,6.85
2022-08-22T06:12:18.231Z,6.15
2022-08-22T06:15:02.680Z,6.55
2022-08-22T06:17:45.670Z,6.38
2022-08-22T06:20:22.169Z,5.80
2022-08-22T06:22:55.442Z,5.45
2022-08-22T06:25:32.465Z,5.30
2022-08-22T06:28:06.338Z,5.70
2022-08-22T06:30:38.799Z,5.15
2022-08-22T06:33:12.871Z,4.28
2022-08-22T06:35:58.666Z,4.32
2022-08-22T06:38:33.989Z,3.90
2022-08-22T06:41:10.703Z,4.10
2022-08-22T06:43:44.645Z,4.38
2022-08-22T06:48:48.731Z,3.35
2022-08-22T06:51:20.867Z,3.95
2022-08-22T06:53:59.437Z,4.75
2022-08-22T06:56:37.868Z,3.53
2022-08-22T06:59:12.124Z,3.58
2022-08-22T07:01:51.970Z,3.20
2022-08-22T07:04:26.792Z,3.45
2022-08-22T07:06:58.996Z,3.25
2022-08-22T07:09:31.397Z,3.05
2022-08-22T07:12:06.667Z,2.65
2022-08-22T07:14:44.431Z,2.60
2022-08-22T07:17:21.739Z,2.08
2022-08-22T07:19:59.861Z,2.10
2022-08-22T07:22:33.702Z,2.45
2022-08-22T07:25:07.748Z,2.28
2022-08-22T07:30:27.905Z,2.00
2022-08-22T07:33:26.047Z,2.03
2022-08-22T07:35:59.140Z,1.55
2022-08-22T07:38:42.757Z,2.00
2022-08-22T07:41:17.825Z,2.00
2022-08-22T07:43:55.048Z,2.00
2022-08-22T07:46:32.633Z,1.83
2022-08-22T07:49:12.327Z,1.70
2022-08-22T07:51:46.015Z,1.35
2022-08-22T07:54:18.206Z,0.90
2022-08-22T07:56:57.708Z,1.15
2022-08-22T07:59:31.847Z,1.70
2022-08-22T08:02:04.708Z,1.70
2022-08-22T08:04:40.616Z,1.38
2022-08-22T08:07:13.851Z,1.83
2022-08-22T08:09:47.443Z,1.50
2022-08-22T08:12:18.836Z,1.10
2022-08-22T08:14:56.787Z,1.38
2022-08-22T08:17:32.412Z,1.00
2022-08-22T08:20:08.700Z,1.58
2022-08-22T08:22:40.828Z,1.25
2022-08-22T08:25:11.627Z,1.58
2022-08-22T08:27:55.275Z,1.75
2022-08-22T08:30:39.477Z,1.55
2022-08-22T08:33:25.396Z,1.25
2022-08-22T08:36:03.865Z,0.82
2022-08-22T08:38:39.158Z,1.38
2022-08-22T08:41:41.017Z,1.13
2022-08-22T08:44:26.051Z,1.23
2022-08-22T08:47:24.056Z,1.60
2022-08-22T08:50:07.532Z,1.70
2022-08-22T08:53:00.148Z,1.65
2022-08-22T08:55:43.915Z,1.00
2022-08-22T08:58:34.877Z,1.48
2022-08-22T09:01:28.625Z,1.38
2022-08-22T09:04:31.159Z,1.15
2022-08-22T09:07:26.090Z,0.88
2022-08-22T09:10:16.561Z,1.52
2022-08-22T09:13:12.094Z,1.58
2022-08-22T09:16:04.561Z,1.50
2022-08-22T09:18:51.095Z,1.10
2022-08-22T09:21:52.895Z,0.70
2022-08-22T09:25:07.514Z,0.70
2022-08-22T09:27:41.386Z,0.57
2022-08-22T09:30:15.568Z,0.98
2022-08-22T09:32:55.711Z,0.93
2022-08-22T09:35:33.542Z,1.05
2022-08-22T09:38:33.513Z,0.95
2022-08-22T09:41:21.492Z,1.00
2022-08-22T09:44:05.634Z,0.93
2022-08-22T09:46:43.338Z,0.82
2022-08-22T09:49:19.387Z,0.57
2022-08-22T09:52:15.188Z,0.98
2022-08-22T09:54:52.120Z,0.85
2022-08-22T09:57:33.124Z,1.17
2022-08-22T10:00:22.110Z,0.45
2022-08-22T10:03:02.682Z,0.60
2022-08-22T10:05:43.549Z,0.80
2022-08-22T10:08:39.625Z,0.95
2022-08-22T10:11:31.558Z,1.38
2022-08-22T10:14:05.650Z,1.05
2022-08-22T10:16:57.040Z,0.93
2022-08-22T10:19:29.868Z,0.70
2022-08-22T10:22:23.519Z,0.70
2022-08-22T10:25:04.836Z,0.73
2022-08-22T10:27:54.278Z,0.70
2022-08-22T10:30:28.863Z,1.13
2022-08-22T10:33:06.241Z,0.75
2022-08-22T10:35:41.683Z,0.90
2022-08-22T10:38:18.338Z,0.70
2022-08-22T10:40:56.185Z,0.90
2022-08-22T10:43:40.796Z,0.57
2022-08-22T10:46:18.138Z,0.95
2022-08-22T10:48:51.838Z,1.02
2022-08-22T10:51:44.665Z,0.90
2022-08-22T10:54:41.308Z,0.80
2022-08-22T10:57:21.284Z,1.65
2022-08-22T11:00:04.525Z,0.70
2022-08-22T11:02:42.184Z,0.40
2022-08-22T11:05:43.399Z,0.60
2022-08-22T11:08:42.513Z,0.55
2022-08-22T11:11:42.722Z,0.75
2022-08-22T11:14:26.171Z,0.43
2022-08-22T11:17:11.998Z,0.47
2022-08-22T11:20:07.874Z,0.38
2022-08-22T11:22:45.647Z,0.47
2022-08-22T11:25:38.685Z,0.52
2022-08-22T11:28:19.662Z,1.25
2022-08-22T11:31:00.951Z,0.75
2022-08-22T11:33:47.191Z,0.40
2022-08-22T11:36:30.890Z,0.40
2022-08-22T11:39:19.015Z,0.63
2022-08-22T11:41:53.321Z,0.50
2022-08-22T11:44:27.623Z,0.73
2022-08-22T11:46:59.698Z,0.70
2022-08-22T11:49:37.417Z,0.52
2022-08-22T11:52:11.068Z,0.30
2022-08-22T11:54:52.882Z,0.30
2022-08-22T11:57:28.876Z,0.50
2022-08-22T12:00:05.183Z,0.50
2022-08-22T12:02:44.530Z,0.63
2022-08-22T12:05:26.151Z,0.63
2022-08-22T12:07:58.659Z,0.90
2022-08-22T12:10:31.129Z,0.28
2022-08-22T12:13:04.038Z,1.25
2022-08-22T12:15:43.713Z,0.45
2022-08-22T12:18:32.043Z,0.68
2022-08-22T12:21:18.807Z,0.65
2022-08-22T12:24:11.057Z,0.90
2022-08-22T12:26:58.391Z,0.60
2022-08-22T12:29:34.110Z,0.55
2022-08-22T12:32:34.892Z,0.57
2022-08-22T12:35:15.562Z,0.30
2022-08-22T12:37:53.079Z,0.60
2022-08-22T12:40:50.547Z,0.45
2022-08-22T12:43:29.229Z,0.70
2022-08-22T12:46:21.208Z,0.75
2022-08-22T12:49:07.946Z,0.60
2022-08-22T12:51:43.452Z,0.50
2022-08-22T12:54:25.359Z,0.60
2022-08-22T12:57:01.771Z,0.38
2022-08-22T12:59:34.152Z,1.38
2022-08-22T13:02:06.280Z,0.68
2022-08-22T13:04:38.102Z,0.68
2022-08-22T13:07:10.935Z,0.40
2022-08-22T13:09:43.213Z,0.60
2022-08-22T13:12:24.558Z,0.40
2022-08-22T13:14:59.379Z,0.38
2022-08-22T13:17:30.297Z,0.60
2022-08-22T13:20:08.646Z,0.40
2022-08-22T13:22:45.382Z,0.50
2022-08-22T13:25:25.792Z,0.82
2022-08-22T13:28:00.428Z,0.63
2022-08-22T13:30:33.247Z,0.60
2022-08-22T13:33:10.130Z,0.38
2022-08-22T13:35:44.535Z,0.52
2022-08-22T13:38:26.608Z,0.68
2022-08-22T13:40:58.343Z,0.50
2022-08-22T13:43:32.555Z,0.60
2022-08-22T13:46:07.040Z,0.70
2022-08-22T13:48:51.307Z,0.82
2022-08-22T13:51:28.147Z,0.60
2022-08-22T13:54:11.208Z,0.40
2022-08-22T13:56:47.518Z,0.65
2022-08-22T13:59:47.452Z,0.55
2022-08-22T14:02:21.734Z,0.30
2022-08-22T14:04:56.010Z,0.47
2022-08-22T14:07:33.405Z,0.57
2022-08-22T14:10:05.731Z,0.50
2022-08-22T14:13:07.101Z,0.50
2022-08-22T14:15:45.045Z,0.70
2022-08-22T14:18:18.680Z,0.30
2022-08-22T14:20:50.316Z,0.68
2022-08-22T14:23:27.188Z,0.50
2022-08-22T14:25:58.455Z,0.50
2022-08-22T14:28:33.467Z,0.77
2022-08-22T14:31:13.292Z,0.35
2022-08-22T14:33:49.681Z,0.50
2022-08-22T14:36:25.555Z,0.52
2022-08-22T14:39:01.156Z,0.93
2022-08-22T14:41:52.817Z,0.70
2022-08-22T14:44:31.943Z,0.47
2022-08-22T14:47:32.303Z,0.90
2022-08-22T14:50:01.627Z,0.63
2022-08-22T14:52:40.745Z,0.70
2022-08-22T14:55:20.572Z,0.70
2022-08-22T14:57:55.571Z,0.60
2022-08-22T15:00:36.417Z,0.40
2022-08-22T15:03:17.374Z,0.55
2022-08-22T15:05:52.734Z,0.60
2022-08-22T15:08:29.154Z,0.38
2022-08-22T15:11:12.121Z,0.40
2022-08-22T15:13:51.980Z,0.68
2022-08-22T15:16:26.036Z,0.50
2022-08-22T15:18:59.156Z,0.40
2022-08-22T15:21:31.989Z,0.70
2022-08-22T15:24:08.023Z,0.50
2022-08-22T15:26:43.327Z,0.47
2022-08-22T15:29:23.190Z,0.30
2022-08-22T15:31:54.647Z,0.50
2022-08-22T15:34:33.980Z,0.95
2022-08-22T15:37:32.583Z,0.65
2022-08-22T15:40:12.735Z,0.73
2022-08-22T15:42:47.040Z,0.47
2022-08-22T15:45:34.838Z,0.55
2022-08-22T15:48:11.587Z,0.65
2022-08-22T15:50:59.381Z,1.88
2022-08-22T15:53:34.074Z,0.60
2022-08-22T15:56:24.723Z,0.45
2022-08-22T15:59:12.485Z,0.50
2022-08-22T16:01:49.803Z,0.57
2022-08-22T16:04:38.955Z,0.50
2022-08-22T16:07:29.691Z,0.60
2022-08-22T16:10:02.923Z,0.57
2022-08-22T16:12:37.544Z,0.90
2022-08-22T16:15:10.095Z,0.95
2022-08-22T16:17:53.532Z,0.63
2022-08-22T16:20:56.994Z,0.82
2022-08-22T16:23:29.604Z,0.68
2022-08-22T16:26:19.967Z,0.85
2022-08-22T16:29:06.107Z,1.10
2022-08-22T16:31:42.719Z,2.20
2022-08-22T16:34:28.295Z,0.82
2022-08-22T16:37:28.134Z,0.68
2022-08-22T16:40:21.281Z,1.02
2022-08-22T16:43:12.421Z,0.70
2022-08-22T16:45:45.555Z,1.85
2022-08-22T16:48:27.093Z,0.52
2022-08-22T16:51:13.606Z,0.82
2022-08-22T16:54:05.596Z,0.73
2022-08-22T16:56:50.589Z,0.55
2022-08-22T16:59:46.264Z,0.75
2022-08-22T17:02:36.323Z,0.98
2022-08-22T17:05:22.785Z,0.70
2022-08-22T17:08:25.717Z,1.10
2022-08-22T17:11:04.422Z,0.70
2022-08-22T17:13:58.075Z,1.13
2022-08-22T17:16:41.559Z,0.50
2022-08-22T17:19:27.247Z,0.68
2022-08-22T17:22:01.568Z,0.77
2022-08-22T17:24:39.255Z,0.73
2022-08-22T17:27:18.436Z,0.85
2022-08-22T17:30:03.019Z,0.70
2022-08-22T17:32:44.656Z,0.88
2022-08-22T17:35:27.660Z,0.82
2022-08-22T17:38:08.043Z,0.57
2022-08-22T17:40:49.487Z,1.00
2022-08-22T17:43:32.805Z,0.73
2022-08-22T17:46:38.460Z,0.90
2022-08-22T17:49:19.514Z,0.85
2022-08-22T17:51:57.673Z,0.60
2022-08-22T17:54:34.900Z,0.80
2022-08-22T17:57:10.051Z,0.85
2022-08-22T17:59:49.931Z,0.68
2022-08-22T18:02:29.668Z,0.63
2022-08-22T18:05:06.191Z,1.00
2022-08-22T18:07:48.727Z,0.68
2022-08-22T18:10:30.247Z,0.80
2022-08-22T18:13:07.820Z,0.50
2022-08-22T18:15:47.738Z,1.00
2022-08-22T18:18:30.358Z,0.85
2022-08-22T18:21:05.755Z,0.70
2022-08-22T18:23:40.701Z,0.80
2022-08-22T18:26:24.020Z,0.60
2022-08-22T18:28:59.668Z,0.88
2022-08-22T18:31:39.470Z,1.40
2022-08-22T18:34:23.303Z,0.95
2022-08-22T18:36:58.510Z,1.10
2022-08-22T18:39:32.562Z,0.98
2022-08-22T18:42:10.942Z,0.60
2022-08-22T18:44:42.543Z,1.25
2022-08-22T18:47:19.346Z,0.90
2022-08-22T18:49:55.703Z,0.85
2022-08-22T18:52:41.317Z,1.10
2022-08-22T18:55:28.791Z,1.10
2022-08-22T18:58:30.743Z,1.30
2022-08-22T19:01:13.025Z,1.10
2022-08-22T19:04:20.110Z,1.35
2022-08-22T19:07:28.213Z,1.08
2022-08-22T19:10:15.947Z,1.38
2022-08-22T19:13:07.010Z,1.30
2022-08-22T19:15:52.423Z,1.70
2022-08-22T19:18:40.824Z,1.00
2022-08-22T19:21:35.149Z,1.52
2022-08-22T19:24:13.333Z,1.25
2022-08-22T19:26:47.841Z,1.38
2022-08-22T19:29:56.822Z,1.08
2022-08-22T19:32:59.158Z,1.02
2022-08-22T19:35:31.948Z,1.20
2022-08-22T19:38:05.196Z,1.42
2022-08-22T19:40:58.639Z,1.10
2022-08-22T19:43:37.084Z,1.00
2022-08-22T19:46:10.228Z,1.30
2022-08-22T19:48:50.144Z,1.13
2022-08-22T19:51:31.494Z,1.17
2022-08-22T19:54:16.798Z,1.17
2022-08-22T19:57:07.006Z,1.25
2022-08-22T19:59:51.043Z,1.40
2022-08-22T20:02:35.707Z,1.45
2022-08-22T20:05:25.388Z,1.48
2022-08-22T20:08:06.346Z,1.50
2022-08-22T20:10:49.963Z,1.60
2022-08-22T20:13:26.620Z,1.65
2022-08-22T20:16:13.651Z,1.60
2022-08-22T20:19:19.426Z,1.40
2022-08-22T20:21:58.640Z,2.63
2022-08-22T20:24:39.969Z,1.95
2022-08-22T20:27:17.041Z,2.20
2022-08-22T20:29:55.299Z,1.42
2022-08-22T20:32:27.479Z,1.58
2022-08-22T20:35:02.147Z,1.70
2022-08-22T20:38:03.212Z,1.35
2022-08-22T20:40:56.028Z,1.73
2022-08-22T20:43:35.145Z,1.65
2022-08-22T20:46:15.761Z,1.98
2022-08-22T20:48:48.122Z,2.10
2022-08-22T20:51:19.726Z,2.20
2022-08-22T20:53:54.150Z,2.10
2022-08-22T20:56:52.819Z,1.65
2022-08-22T20:59:30.085Z,1.92
2022-08-22T21:02:08.080Z,1.73
2022-08-22T21:04:43.113Z,1.70
2022-08-22T21:07:13.491Z,2.22
2022-08-22T21:09:55.965Z,1.73
2022-08-22T21:12:26.485Z,2.00
2022-08-22T21:14:56.754Z,1.73
2022-08-22T21:17:35.524Z,1.90
2022-08-22T21:20:19.395Z,1.77
2022-08-22T21:22:49.459Z,2.22
2022-08-22T21:25:19.586Z,2.13
2022-08-22T21:27:53.441Z,1.90
2022-08-22T21:30:25.540Z,2.28
2022-08-22T21:32:58.731Z,2.00
2022-08-22T21:35:32.368Z,2.38
2022-08-22T21:38:03.780Z,2.28
2022-08-22T21:40:35.530Z,2.47
2022-08-22T21:43:08.714Z,2.05
2022-08-22T21:45:46.952Z,2.03
2022-08-22T21:48:45.009Z,2.20
2022-08-22T21:51:25.431Z,2.65
2022-08-22T21:54:18.210Z,2.63
2022-08-22T21:56:52.899Z,3.15
2022-08-22T21:59:50.577Z,2.78
2022-08-22T22:02:37.152Z,2.22
2022-08-22T22:05:11.429Z,2.20
2022-08-22T22:07:42.368Z,2.30
2022-08-22T22:10:16.122Z,2.55
2022-08-22T22:12:51.312Z,2.40
2022-08-22T22:15:22.679Z,2.85
2022-08-22T22:17:52.954Z,2.70
2022-08-22T22:20:24.465Z,2.85
2022-08-22T22:22:54.679Z,2.38
2022-08-22T22:25:40.786Z,2.80
2022-08-22T22:28:15.883Z,2.40
2022-08-22T22:33:16.358Z,2.33
2022-08-22T22:35:47.444Z,2.67
2022-08-22T22:38:23.243Z,2.83
2022-08-22T22:40:53.975Z,2.97
2022-08-22T22:43:26.821Z,2.55
2022-08-22T22:45:56.796Z,2.67
2022-08-22T22:48:26.787Z,2.97
2022-08-22T22:50:57.226Z,2.70
2022-08-22T22:53:28.621Z,3.00
2022-08-22T22:56:09.663Z,2.42
2022-08-22T22:58:42.501Z,2.85
2022-08-22T23:01:15.234Z,2.75
2022-08-22T23:03:45.645Z,2.60
2022-08-22T23:06:18.068Z,2.80
2022-08-22T23:08:48.469Z,2.97
2022-08-22T23:11:20.148Z,2.58
2022-08-22T23:13:53.460Z,2.67
2022-08-22T23:16:24.899Z,2.60
2022-08-22T23:18:54.995Z,2.83
2022-08-22T23:21:28.896Z,2.50
2022-08-22T23:24:00.332Z,2.53
2022-08-22T23:26:31.674Z,2.90
2022-08-22T23:29:04.715Z,2.92
2022-08-22T23:31:36.465Z,2.55
2022-08-22T23:34:08.694Z,2.92
2022-08-22T23:36:38.964Z,3.28
2022-08-22T23:39:10.613Z,2.72
2022-08-22T23:41:40.919Z,3.45
2022-08-22T23:44:16.152Z,2.90
2022-08-22T23:46:46.862Z,3.15
2022-08-22T23:49:17.478Z,3.88
2022-08-22T23:51:47.754Z,3.53
2022-08-22T23:54:17.956Z,3.20
2022-08-22T23:56:50.393Z,3.10
2022-08-22T23:59:30.561Z,3.58
